Time;durP1;ratioP1;P1;durP2;ratioP2;P2;SDS_P1;SDS_P2;PMS_P1;PMS_P2;Temp;Humidity;BMP_temperature;BMP_pressure;BME280_temperature;BME280_humidity;BME280_pressure;Samples;Min_cycle;Max_cycle;Signal;HPM_P1;HPM_P2
2023/02/26 00:00:13;;;;;;;;;;;1.60;99.90;;;;;;4992184;28;19921;-65
2023/02/26 00:02:44;;;;;;;;;;;1.60;99.90;;;;;;5008204;28;19918;-65
2023/02/26 00:05:10;;;;;;;;;;;1.60;99.90;;;;;;4990966;28;20012;-65
2023/02/26 00:07:36;;;;;;;;;;;1.50;99.90;;;;;;4998136;28;19914;-64
2023/02/26 00:10:03;;;;;;;;;;;1.50;99.90;;;;;;4986493;28;20379;-65
2023/02/26 00:12:29;;;;;;;;;;;1.50;99.90;;;;;;5000215;28;20394;-65
2023/02/26 00:14:55;;;;;;;;;;;1.60;99.90;;;;;;4989825;28;19913;-65
2023/02/26 00:17:32;;;;;;;;;;;1.60;99.90;;;;;;5021098;28;19928;-65
2023/02/26 00:19:58;;;;;;;;;;;1.60;99.90;;;;;;5001671;28;20368;-65
2023/02/26 00:22:24;;;;;;;;;;;1.60;99.90;;;;;;5013950;28;19925;-65
2023/02/26 00:24:49;;;;;;;;;;;1.60;99.90;;;;;;5004729;28;19917;-65
2023/02/26 00:27:15;;;;;;;;;;;1.60;99.90;;;;;;4985451;28;20028;-65
2023/02/26 00:29:40;;;;;;;;;;;1.60;99.90;;;;;;5000506;28;19913;-65
2023/02/26 00:32:06;;;;;;;;;;;1.60;99.90;;;;;;5024862;28;19913;-65
2023/02/26 00:34:32;;;;;;;;;;;1.60;99.90;;;;;;4994353;28;19913;-65
2023/02/26 00:37:06;;;;;;;;;;;1.60;99.90;;;;;;4995522;28;19921;-65
2023/02/26 00:39:41;;;;;;;;;;;1.60;99.90;;;;;;4999806;28;20553;-65
2023/02/26 00:42:07;;;;;;;;;;;1.60;99.90;;;;;;5009707;28;20000;-65
2023/02/26 00:44:33;;;;;;;;;;;1.70;99.90;;;;;;4999094;28;20003;-65
2023/02/26 00:47:02;;;;;;;;;;;1.70;99.90;;;;;;5014125;28;19921;-65
2023/02/26 00:49:48;;;;;;;;;;;1.70;99.90;;;;;;5012744;28;19918;-65
2023/02/26 00:52:19;;;;;;;;;;;1.80;99.90;;;;;;5019100;28;20012;-65
2023/02/26 00:54:44;;;;;;;;;;;1.80;99.90;;;;;;5011386;28;19917;-65
2023/02/26 00:57:10;;;;;;;;;;;1.80;99.90;;;;;;4996377;28;20448;-65
2023/02/26 00:59:35;;;;;;;;;;;1.80;99.90;;;;;;4991809;28;19918;-65
2023/02/26 01:02:01;;;;;;;;;;;1.90;99.90;;;;;;4994884;28;19975;-65
2023/02/26 01:04:26;;;;;;;;;;;1.90;99.90;;;;;;4990591;28;20000;-64
2023/02/26 01:06:53;;;;;;;;;;;1.90;99.90;;;;;;5013407;28;20345;-65
2023/02/26 01:09:23;;;;;;;;;;;1.90;99.90;;;;;;4987247;28;19929;-65
2023/02/26 01:11:49;;;;;;;;;;;1.90;99.90;;;;;;4998068;28;20487;-65
2023/02/26 01:14:14;;;;;;;;;;;1.90;99.90;;;;;;4995628;28;20008;-65
2023/02/26 01:16:44;;;;;;;;;;;1.90;99.90;;;;;;4988610;28;19957;-65
2023/02/26 01:19:19;;;;;;;;;;;1.90;99.90;;;;;;4993270;28;19913;-65
2023/02/26 01:21:47;;;;;;;;;;;1.90;99.90;;;;;;4997152;28;20001;-65
2023/02/26 01:24:14;;;;;;;;;;;1.80;99.90;;;;;;4996663;28;19914;-65
2023/02/26 01:26:39;;;;;;;;;;;1.80;99.90;;;;;;5007593;28;19921;-65
2023/02/26 01:29:05;;;;;;;;;;;1.80;99.90;;;;;;4997984;28;20342;-65
2023/02/26 01:31:31;;;;;;;;;;;1.80;99.90;;;;;;4995524;28;19917;-65
2023/02/26 01:34:00;;;;;;;;;;;1.80;99.90;;;;;;4994015;28;19925;-65
2023/02/26 01:36:30;;;;;;;;;;;1.80;99.90;;;;;;5007873;28;19914;-65
2023/02/26 01:38:55;;;;;;;;;;;1.80;99.90;;;;;;4990916;28;19913;-65
2023/02/26 01:41:59;;;;;;;;;;;1.80;99.90;;;;;;5004547;28;19920;-65
2023/02/26 01:44:30;;;;;;;;;;;1.80;99.90;;;;;;4953412;28;19937;-65
2023/02/26 01:46:58;;;;;;;;;;;1.80;99.90;;;;;;4958891;28;19922;-65
2023/02/26 01:49:24;;;;;;;;;;;1.80;99.90;;;;;;4985726;28;19917;-65
2023/02/26 01:51:51;;;;;;;;;;;1.70;99.90;;;;;;5019222;28;19963;-65
2023/02/26 01:54:43;;;;;;;;;;;1.80;99.90;;;;;;4990383;28;19917;-65
2023/02/26 01:57:11;;;;;;;;;;;1.70;99.90;;;;;;4994743;28;19960;-65
2023/02/26 01:59:38;;;;;;;;;;;1.60;99.90;;;;;;4995051;28;19913;-65
2023/02/26 02:02:05;;;;;;;;;;;1.60;99.90;;;;;;5011974;28;20307;-65
2023/02/26 02:04:31;;;;;;;;;;;1.50;99.90;;;;;;5000665;28;20290;-65
2023/02/26 02:06:57;;;;;;;;;;;1.40;99.90;;;;;;4997939;28;19913;-65
2023/02/26 02:09:23;;;;;;;;;;;1.40;99.90;;;;;;4993465;28;20382;-65
2023/02/26 02:12:07;;;;;;;;;;;1.30;99.90;;;;;;4999799;28;20416;-65
2023/02/26 02:15:08;;;;;;;;;;;1.40;99.90;;;;;;5010654;28;19917;-64
2023/02/26 02:17:53;;;;;;;;;;;1.40;99.90;;;;;;4937887;28;19926;-65
2023/02/26 02:20:19;;;;;;;;;;;1.40;99.90;;;;;;4988942;28;19917;-65
2023/02/26 02:22:47;;;;;;;;;;;1.30;99.90;;;;;;4996964;28;19939;-65
2023/02/26 02:25:16;;;;;;;;;;;1.40;99.90;;;;;;4996135;28;19921;-65
2023/02/26 02:27:56;;;;;;;;;;;1.40;99.90;;;;;;5003077;28;19947;-64
2023/02/26 02:30:27;;;;;;;;;;;1.40;99.90;;;;;;4994560;28;20295;-65
2023/02/26 02:32:58;;;;;;;;;;;1.40;99.90;;;;;;4988533;28;20338;-65
2023/02/26 02:35:25;;;;;;;;;;;1.40;99.90;;;;;;5016292;28;19920;-64
2023/02/26 02:38:06;;;;;;;;;;;1.40;99.90;;;;;;4990649;28;19987;-64
2023/02/26 02:40:33;;;;;;;;;;;1.40;99.90;;;;;;4993116;28;20387;-64
2023/02/26 02:43:08;;;;;;;;;;;1.40;99.90;;;;;;5015812;28;19924;-65
2023/02/26 02:45:55;;;;;;;;;;;1.40;99.90;;;;;;4996908;28;19928;-63
2023/02/26 02:48:24;;;;;;;;;;;1.40;99.90;;;;;;4989057;28;19913;-63
2023/02/26 02:50:56;;;;;;;;;;;1.40;99.90;;;;;;4982878;28;19928;-66
2023/02/26 02:53:21;;;;;;;;;;;1.30;99.90;;;;;;4991856;28;19945;-64
2023/02/26 02:55:52;;;;;;;;;;;1.30;99.90;;;;;;5010354;28;19951;-63
2023/02/26 02:58:20;;;;;;;;;;;1.20;99.90;;;;;;4993396;28;19914;-66
2023/02/26 03:00:48;;;;;;;;;;;1.20;99.90;;;;;;5016901;28;19965;-63
2023/02/26 03:03:23;;;;;;;;;;;1.20;99.90;;;;;;5013435;28;19928;-63
2023/02/26 03:05:49;;;;;;;;;;;1.20;99.90;;;;;;4993470;28;19914;-64
2023/02/26 03:08:16;;;;;;;;;;;1.20;99.90;;;;;;4997142;28;20189;-64
2023/02/26 03:10:41;;;;;;;;;;;1.20;99.90;;;;;;4999171;28;20383;-63
2023/02/26 03:13:14;;;;;;;;;;;1.20;99.90;;;;;;5013258;23;19930;-63
2023/02/26 03:16:00;;;;;;;;;;;1.10;99.90;;;;;;5012173;28;19913;-65
2023/02/26 03:18:44;;;;;;;;;;;1.10;99.90;;;;;;5029691;28;19917;-63
2023/02/26 03:21:18;;;;;;;;;;;1.10;99.90;;;;;;5023184;28;20271;-63
2023/02/26 03:23:48;;;;;;;;;;;1.10;99.90;;;;;;5009205;28;19917;-65
2023/02/26 03:26:17;;;;;;;;;;;1.10;99.90;;;;;;4987558;28;19937;-65
2023/02/26 03:28:46;;;;;;;;;;;1.10;99.90;;;;;;5006868;28;19925;-64
2023/02/26 03:31:25;;;;;;;;;;;1.00;99.90;;;;;;4995982;28;20000;-66
2023/02/26 03:33:59;;;;;;;;;;;1.10;99.90;;;;;;5001096;28;19918;-65
2023/02/26 03:36:27;;;;;;;;;;;1.00;99.90;;;;;;5013531;28;20036;-66
2023/02/26 03:39:11;;;;;;;;;;;0.90;99.90;;;;;;4983476;28;20088;-65
2023/02/26 03:41:42;;;;;;;;;;;1.00;99.90;;;;;;5004298;28;19932;-65
2023/02/26 03:44:15;;;;;;;;;;;0.90;99.90;;;;;;4981359;28;20371;-66
2023/02/26 03:46:46;;;;;;;;;;;0.90;99.90;;;;;;4989162;28;19988;-66
2023/02/26 03:49:13;;;;;;;;;;;0.90;99.90;;;;;;4999506;28;19913;-66
2023/02/26 03:51:40;;;;;;;;;;;0.80;99.90;;;;;;4997500;28;20456;-65
2023/02/26 03:54:14;;;;;;;;;;;0.80;99.90;;;;;;5001276;28;19913;-65
2023/02/26 03:56:41;;;;;;;;;;;0.80;99.90;;;;;;4992642;28;20430;-66
2023/02/26 03:59:07;;;;;;;;;;;0.80;99.90;;;;;;5003095;28;19914;-65
2023/02/26 04:01:38;;;;;;;;;;;0.90;99.90;;;;;;5006993;28;19913;-65
2023/02/26 04:04:36;;;;;;;;;;;0.90;99.90;;;;;;5010786;28;20236;-65
2023/02/26 04:07:02;;;;;;;;;;;0.90;99.90;;;;;;4956384;28;19920;-65
2023/02/26 04:09:27;;;;;;;;;;;0.90;99.90;;;;;;5003766;28;20307;-66
2023/02/26 04:11:55;;;;;;;;;;;0.90;99.90;;;;;;5004288;28;19932;-64
2023/02/26 04:14:20;;;;;;;;;;;0.90;99.90;;;;;;5009210;28;19944;-66
2023/02/26 04:16:46;;;;;;;;;;;0.80;99.90;;;;;;4995004;28;20397;-65
2023/02/26 04:19:11;;;;;;;;;;;0.90;99.90;;;;;;4996109;28;20056;-64
2023/02/26 04:21:37;;;;;;;;;;;0.90;99.90;;;;;;4995433;28;19910;-62
2023/02/26 04:24:02;;;;;;;;;;;0.80;99.90;;;;;;5008272;28;19925;-65
2023/02/26 04:26:27;;;;;;;;;;;0.80;99.90;;;;;;5008146;28;19906;-66
2023/02/26 04:28:53;;;;;;;;;;;0.80;99.90;;;;;;5009896;28;19920;-64
2023/02/26 04:31:18;;;;;;;;;;;0.80;99.90;;;;;;5006820;28;19969;-65
2023/02/26 04:33:44;;;;;;;;;;;0.80;99.90;;;;;;4990677;28;19922;-65
2023/02/26 04:36:09;;;;;;;;;;;0.80;99.90;;;;;;4999297;28;19912;-64
2023/02/26 04:38:35;;;;;;;;;;;0.80;99.90;;;;;;5005183;28;20005;-64
2023/02/26 04:41:01;;;;;;;;;;;0.80;99.90;;;;;;5012021;28;19956;-65
2023/02/26 04:43:26;;;;;;;;;;;0.80;99.90;;;;;;5009033;28;20366;-65
2023/02/26 04:45:51;;;;;;;;;;;0.80;99.90;;;;;;4999889;28;20307;-64
2023/02/26 04:48:17;;;;;;;;;;;0.80;99.90;;;;;;5006264;28;19909;-65
2023/02/26 04:50:43;;;;;;;;;;;0.80;99.90;;;;;;5005266;28;19964;-65
2023/02/26 04:53:09;;;;;;;;;;;0.70;99.90;;;;;;4990929;28;19929;-65
2023/02/26 04:55:35;;;;;;;;;;;0.80;99.90;;;;;;5011277;28;19925;-66
2023/02/26 04:58:00;;;;;;;;;;;0.80;99.90;;;;;;5006747;28;19910;-65
2023/02/26 05:00:25;;;;;;;;;;;0.80;99.90;;;;;;5012037;28;20381;-65
2023/02/26 05:02:51;;;;;;;;;;;0.80;99.90;;;;;;5000282;28;20005;-65
2023/02/26 05:05:17;;;;;;;;;;;0.80;99.90;;;;;;5001722;28;19909;-65
2023/02/26 05:07:42;;;;;;;;;;;0.70;99.90;;;;;;5005510;28;19909;-65
2023/02/26 05:10:08;;;;;;;;;;;0.70;99.90;;;;;;5006450;28;20004;-64
2023/02/26 05:12:33;;;;;;;;;;;0.70;99.90;;;;;;5017974;28;19916;-65
2023/02/26 05:14:59;;;;;;;;;;;0.70;99.90;;;;;;5005262;28;19925;-65
2023/02/26 05:17:24;;;;;;;;;;;0.70;99.90;;;;;;4999410;28;20771;-65
2023/02/26 05:19:50;;;;;;;;;;;0.70;99.90;;;;;;5010455;28;19941;-65
2023/02/26 05:22:16;;;;;;;;;;;0.60;99.90;;;;;;5013326;28;19990;-65
2023/02/26 05:24:42;;;;;;;;;;;0.60;99.90;;;;;;4995001;28;19916;-64
2023/02/26 05:27:08;;;;;;;;;;;0.60;99.90;;;;;;4994538;28;19910;-65
2023/02/26 05:29:33;;;;;;;;;;;0.60;99.90;;;;;;5002641;28;19921;-66
2023/02/26 05:31:59;;;;;;;;;;;0.60;99.90;;;;;;4989516;28;20519;-65
2023/02/26 05:34:24;;;;;;;;;;;0.50;99.90;;;;;;4996215;28;19918;-65
2023/02/26 05:36:50;;;;;;;;;;;0.60;99.90;;;;;;4991082;28;20051;-65
2023/02/26 05:39:15;;;;;;;;;;;0.60;99.90;;;;;;4998793;28;19909;-62
2023/02/26 05:41:41;;;;;;;;;;;0.50;99.90;;;;;;5007720;28;19916;-62
2023/02/26 05:44:09;;;;;;;;;;;0.50;99.90;;;;;;5008488;28;19909;-64
2023/02/26 05:46:34;;;;;;;;;;;0.50;99.90;;;;;;5005727;28;19916;-65
2023/02/26 05:49:00;;;;;;;;;;;0.50;99.90;;;;;;5006796;28;19921;-65
2023/02/26 05:51:25;;;;;;;;;;;0.50;99.90;;;;;;5005449;28;19928;-65
2023/02/26 05:53:51;;;;;;;;;;;0.50;99.90;;;;;;5002368;28;20391;-65
2023/02/26 05:56:16;;;;;;;;;;;0.50;99.90;;;;;;5002441;28;19933;-65
2023/02/26 05:58:42;;;;;;;;;;;0.50;99.90;;;;;;4989329;28;19935;-63
2023/02/26 06:01:07;;;;;;;;;;;0.50;99.90;;;;;;4998357;28;19941;-65
2023/02/26 06:03:33;;;;;;;;;;;0.50;99.90;;;;;;5003715;28;19909;-65
2023/02/26 06:05:58;;;;;;;;;;;0.40;99.90;;;;;;5009714;28;19932;-65
2023/02/26 06:08:24;;;;;;;;;;;0.40;99.90;;;;;;5010903;28;19921;-65
2023/02/26 06:10:50;;;;;;;;;;;0.40;99.90;;;;;;5000616;28;19914;-65
2023/02/26 06:13:15;;;;;;;;;;;0.50;99.90;;;;;;5008998;28;20321;-65
2023/02/26 06:15:41;;;;;;;;;;;0.40;99.90;;;;;;5004293;28;19910;-65
2023/02/26 06:18:07;;;;;;;;;;;0.40;99.90;;;;;;4998146;28;20347;-65
2023/02/26 06:20:33;;;;;;;;;;;0.40;99.90;;;;;;4998918;28;19918;-65
2023/02/26 06:22:58;;;;;;;;;;;0.40;99.90;;;;;;5005991;28;19909;-65
2023/02/26 06:25:23;;;;;;;;;;;0.40;99.90;;;;;;5011125;28;20318;-65
2023/02/26 06:27:49;;;;;;;;;;;0.30;99.90;;;;;;5010204;28;19917;-65
2023/02/26 06:30:14;;;;;;;;;;;0.40;99.90;;;;;;4997939;28;19917;-65
2023/02/26 06:32:40;;;;;;;;;;;0.40;99.90;;;;;;4998789;28;19981;-64
2023/02/26 06:35:06;;;;;;;;;;;0.30;99.90;;;;;;5018634;28;20284;-66
2023/02/26 06:37:31;;;;;;;;;;;0.40;99.90;;;;;;5014265;28;20036;-65
2023/02/26 06:39:57;;;;;;;;;;;0.40;99.90;;;;;;5012963;28;19960;-64
2023/02/26 06:42:22;;;;;;;;;;;0.30;99.90;;;;;;4999443;28;20306;-65
2023/02/26 06:44:48;;;;;;;;;;;0.30;99.90;;;;;;5010441;28;19917;-64
2023/02/26 06:47:13;;;;;;;;;;;0.30;99.90;;;;;;5008592;28;20486;-60
2023/02/26 06:49:38;;;;;;;;;;;0.30;99.90;;;;;;5006721;28;20374;-65
2023/02/26 06:52:04;;;;;;;;;;;0.30;99.90;;;;;;4999357;28;19952;-66
2023/02/26 06:54:29;;;;;;;;;;;0.30;99.90;;;;;;5003839;28;19916;-65
2023/02/26 06:56:59;;;;;;;;;;;0.30;99.90;;;;;;5006400;28;20004;-65
2023/02/26 06:59:24;;;;;;;;;;;0.30;99.90;;;;;;5005301;28;20282;-64
2023/02/26 07:01:50;;;;;;;;;;;0.30;99.90;;;;;;5006975;28;19917;-62
2023/02/26 07:04:15;;;;;;;;;;;0.40;99.90;;;;;;5007360;28;19917;-64
2023/02/26 07:06:41;;;;;;;;;;;0.40;99.90;;;;;;5000169;28;20532;-64
2023/02/26 07:09:06;;;;;;;;;;;0.40;99.90;;;;;;4994496;28;19910;-64
2023/02/26 07:11:32;;;;;;;;;;;0.40;99.90;;;;;;5002014;28;19918;-65
2023/02/26 07:13:57;;;;;;;;;;;0.40;99.90;;;;;;5004867;28;19913;-63
2023/02/26 07:16:23;;;;;;;;;;;0.40;99.90;;;;;;5008321;28;19909;-64
2023/02/26 07:18:48;;;;;;;;;;;0.40;99.90;;;;;;5008812;28;19910;-64
2023/02/26 07:21:14;;;;;;;;;;;0.40;99.90;;;;;;4994678;28;19928;-65
2023/02/26 07:23:39;;;;;;;;;;;0.40;99.90;;;;;;5007416;28;20379;-63
2023/02/26 07:26:05;;;;;;;;;;;0.50;99.90;;;;;;5009635;28;19922;-66
2023/02/26 07:28:30;;;;;;;;;;;0.50;99.90;;;;;;5004528;28;19961;-65
2023/02/26 07:30:56;;;;;;;;;;;0.50;99.90;;;;;;4998934;28;19920;-65
2023/02/26 07:33:22;;;;;;;;;;;0.60;99.90;;;;;;4993626;28;20427;-65
2023/02/26 07:35:47;;;;;;;;;;;0.60;99.90;;;;;;5008287;28;20287;-62
2023/02/26 07:38:12;;;;;;;;;;;0.70;99.90;;;;;;5008907;28;19910;-60
2023/02/26 07:40:38;;;;;;;;;;;0.70;99.90;;;;;;5012962;28;19964;-64
2023/02/26 07:43:03;;;;;;;;;;;0.70;99.90;;;;;;4999637;28;20007;-65
2023/02/26 07:45:29;;;;;;;;;;;0.80;99.90;;;;;;4996326;28;20022;-64
2023/02/26 07:47:54;;;;;;;;;;;0.80;99.90;;;;;;4994348;28;19973;-64
2023/02/26 07:50:20;;;;;;;;;;;0.80;99.90;;;;;;4985975;28;19921;-65
2023/02/26 07:52:46;;;;;;;;;;;0.80;99.90;;;;;;5008909;28;20624;-64
2023/02/26 07:55:12;;;;;;;;;;;0.80;99.90;;;;;;5001122;28;19917;-65
2023/02/26 07:57:38;;;;;;;;;;;0.90;99.90;;;;;;5010276;28;19968;-64
2023/02/26 08:00:03;;;;;;;;;;;0.90;99.90;;;;;;5018959;28;20279;-65
2023/02/26 08:02:29;;;;;;;;;;;0.90;99.90;;;;;;5013645;28;20544;-64
2023/02/26 08:04:54;;;;;;;;;;;1.00;99.90;;;;;;5010769;28;19924;-65
2023/02/26 08:07:20;;;;;;;;;;;1.00;99.90;;;;;;5008899;28;19917;-64
2023/02/26 08:09:45;;;;;;;;;;;1.00;99.90;;;;;;5011122;28;20387;-64
2023/02/26 08:12:11;;;;;;;;;;;1.10;99.90;;;;;;5004697;28;20298;-66
2023/02/26 08:14:36;;;;;;;;;;;1.10;99.90;;;;;;5005083;28;20007;-65
2023/02/26 08:17:01;;;;;;;;;;;1.10;99.90;;;;;;4999902;28;19910;-64
2023/02/26 08:19:27;;;;;;;;;;;1.10;99.90;;;;;;5010190;28;19910;-64
2023/02/26 08:21:54;;;;;;;;;;;1.10;99.90;;;;;;5016091;28;19955;-65
2023/02/26 08:24:20;;;;;;;;;;;1.10;99.90;;;;;;5004400;28;19917;-66
2023/02/26 08:26:46;;;;;;;;;;;1.20;99.90;;;;;;5013092;28;19933;-66
2023/02/26 08:29:11;;;;;;;;;;;1.20;99.90;;;;;;5008838;28;20270;-66
2023/02/26 08:31:37;;;;;;;;;;;1.20;99.90;;;;;;5013849;28;19936;-65
2023/02/26 08:34:02;;;;;;;;;;;1.30;99.90;;;;;;4996905;28;20021;-65
2023/02/26 08:36:28;;;;;;;;;;;1.40;99.90;;;;;;4989941;28;19910;-62
2023/02/26 08:38:54;;;;;;;;;;;1.40;99.90;;;;;;5004525;28;20442;-62
2023/02/26 08:41:20;;;;;;;;;;;1.40;99.90;;;;;;5015834;28;19910;-62
2023/02/26 08:43:46;;;;;;;;;;;1.50;99.90;;;;;;5006240;28;19917;-63
2023/02/26 08:46:11;;;;;;;;;;;1.50;99.90;;;;;;4991861;28;19922;-61
2023/02/26 08:48:37;;;;;;;;;;;1.60;99.90;;;;;;4999582;28;19953;-62
2023/02/26 08:51:02;;;;;;;;;;;1.60;99.90;;;;;;5009073;28;19921;-62
2023/02/26 08:53:28;;;;;;;;;;;1.70;99.90;;;;;;5009517;28;20367;-63
2023/02/26 08:55:53;;;;;;;;;;;1.80;99.90;;;;;;5010413;28;20425;-61
2023/02/26 08:58:19;;;;;;;;;;;1.80;99.90;;;;;;5006238;28;19910;-61
2023/02/26 09:00:44;;;;;;;;;;;1.80;99.90;;;;;;5003338;28;19996;-62
2023/02/26 09:03:10;;;;;;;;;;;1.90;99.90;;;;;;4996635;28;20407;-62
2023/02/26 09:05:35;;;;;;;;;;;2.00;99.90;;;;;;5004032;28;19909;-61
2023/02/26 09:08:01;;;;;;;;;;;2.00;99.90;;;;;;4995479;28;19909;-59
2023/02/26 09:10:26;;;;;;;;;;;2.10;99.90;;;;;;4998172;28;20389;-61
2023/02/26 09:12:52;;;;;;;;;;;2.10;99.90;;;;;;5000655;28;19969;-61
2023/02/26 09:15:18;;;;;;;;;;;2.10;99.90;;;;;;4991986;28;20271;-60
2023/02/26 09:17:44;;;;;;;;;;;2.20;99.90;;;;;;4987527;28;20419;-60
2023/02/26 09:20:10;;;;;;;;;;;2.30;99.90;;;;;;5005772;28;20047;-61
2023/02/26 09:22:35;;;;;;;;;;;2.30;99.90;;;;;;5010849;28;19940;-60
2023/02/26 09:25:01;;;;;;;;;;;2.40;99.90;;;;;;5008223;28;19929;-60
2023/02/26 09:27:27;;;;;;;;;;;2.50;99.90;;;;;;5009021;28;19910;-59
2023/02/26 09:29:52;;;;;;;;;;;2.50;99.90;;;;;;5009629;28;19910;-60
2023/02/26 09:32:17;;;;;;;;;;;2.60;99.90;;;;;;4991470;28;19910;-61
2023/02/26 09:34:43;;;;;;;;;;;2.70;99.90;;;;;;5006805;28;19914;-59
2023/02/26 09:37:08;;;;;;;;;;;2.80;99.90;;;;;;4997349;28;19922;-61
2023/02/26 09:39:34;;;;;;;;;;;2.90;99.90;;;;;;5010141;28;19917;-61
2023/02/26 09:42:10;;;;;;;;;;;3.10;99.90;;;;;;4998891;28;19972;-60
2023/02/26 09:44:38;;;;;;;;;;;3.10;99.90;;;;;;4985119;28;19922;-63
2023/02/26 09:47:07;;;;;;;;;;;3.20;99.90;;;;;;4998996;28;19957;-61
2023/02/26 09:49:59;;;;;;;;;;;3.30;99.90;;;;;;5005034;28;20060;-61
2023/02/26 09:52:30;;;;;;;;;;;3.40;99.90;;;;;;4974935;28;20370;-61
2023/02/26 09:54:58;;;;;;;;;;;3.60;99.90;;;;;;5007162;28;19945;-62
2023/02/26 09:57:29;;;;;;;;;;;3.60;99.90;;;;;;5005815;28;19917;-62
2023/02/26 09:59:55;;;;;;;;;;;3.60;99.90;;;;;;5006909;28;19921;-62
2023/02/26 10:02:29;;;;;;;;;;;3.60;99.90;;;;;;5005403;28;20279;-62
2023/02/26 10:05:00;;;;;;;;;;;3.90;99.90;;;;;;5007013;28;19922;-61
2023/02/26 10:07:31;;;;;;;;;;;4.00;99.90;;;;;;5008581;28;19936;-62
2023/02/26 10:10:14;;;;;;;;;;;4.10;99.90;;;;;;4999841;28;20024;-62
2023/02/26 10:12:40;;;;;;;;;;;4.10;99.90;;;;;;5009892;28;19925;-60
2023/02/26 10:15:08;;;;;;;;;;;4.30;99.90;;;;;;5001820;28;19910;-62
2023/02/26 10:17:52;;;;;;;;;;;4.50;99.90;;;;;;4999818;28;20033;-61
2023/02/26 10:20:20;;;;;;;;;;;4.50;99.90;;;;;;4998307;28;19956;-62
2023/02/26 10:22:55;;;;;;;;;;;4.40;99.90;;;;;;5003169;28;19917;-61
2023/02/26 10:25:21;;;;;;;;;;;4.40;99.90;;;;;;5005178;28;20843;-64
2023/02/26 10:28:05;;;;;;;;;;;4.40;99.90;;;;;;4997218;28;19925;-62
2023/02/26 10:30:40;;;;;;;;;;;4.40;99.90;;;;;;5004726;28;20367;-61
2023/02/26 10:33:14;;;;;;;;;;;4.20;99.90;;;;;;5013053;28;19917;-61
2023/02/26 10:35:43;;;;;;;;;;;4.30;99.90;;;;;;4998390;28;20376;-61
2023/02/26 10:38:13;;;;;;;;;;;4.40;99.90;;;;;;5003536;28;20338;-62
2023/02/26 10:40:46;;;;;;;;;;;4.40;99.90;;;;;;5011729;28;20282;-61
2023/02/26 10:43:35;;;;;;;;;;;4.60;99.90;;;;;;5001611;28;19916;-59
2023/02/26 10:46:18;;;;;;;;;;;4.70;99.90;;;;;;4995538;28;20371;-61
2023/02/26 10:48:58;;;;;;;;;;;4.70;99.90;;;;;;4998663;28;20004;-61
2023/02/26 10:51:27;;;;;;;;;;;4.80;99.90;;;;;;4991849;28;19913;-62
2023/02/26 10:53:58;;;;;;;;;;;5.10;99.90;;;;;;4997666;28;19920;-61
2023/02/26 10:56:25;;;;;;;;;;;5.30;99.90;;;;;;4991115;28;20409;-63
2023/02/26 10:58:51;;;;;;;;;;;5.50;99.90;;;;;;5004596;28;19910;-61
2023/02/26 11:01:20;;;;;;;;;;;5.60;99.90;;;;;;5000784;28;19921;-62
2023/02/26 11:03:47;;;;;;;;;;;5.70;99.90;;;;;;5011936;28;19928;-62
2023/02/26 11:06:20;;;;;;;;;;;5.70;99.90;;;;;;5003196;28;19909;-63
2023/02/26 11:08:47;;;;;;;;;;;5.70;99.90;;;;;;5010631;28;19993;-62
2023/02/26 11:11:33;;;;;;;;;;;5.80;99.90;;;;;;5004904;28;20389;-61
2023/02/26 11:13:58;;;;;;;;;;;5.60;99.90;;;;;;5001015;28;20395;-62
2023/02/26 11:16:24;;;;;;;;;;;5.50;99.90;;;;;;4982679;28;19921;-61
2023/02/26 11:18:52;;;;;;;;;;;5.40;99.90;;;;;;4995646;28;20375;-61
2023/02/26 11:21:23;;;;;;;;;;;5.20;99.90;;;;;;4999969;28;19909;-62
2023/02/26 11:23:52;;;;;;;;;;;5.30;99.90;;;;;;4986479;28;19976;-59
2023/02/26 11:26:18;;;;;;;;;;;4.90;99.90;;;;;;5003857;28;19964;-62
2023/02/26 11:28:48;;;;;;;;;;;4.90;99.90;;;;;;5002121;28;20157;-62
2023/02/26 11:31:16;;;;;;;;;;;5.20;99.90;;;;;;4998676;28;20368;-61
2023/02/26 11:33:47;;;;;;;;;;;5.30;99.90;;;;;;5007024;28;19918;-62
2023/02/26 11:36:15;;;;;;;;;;;5.40;99.90;;;;;;4991826;28;19928;-62
2023/02/26 11:38:45;;;;;;;;;;;5.10;99.90;;;;;;5003096;28;19928;-62
2023/02/26 11:41:11;;;;;;;;;;;5.00;99.90;;;;;;5015205;28;19925;-61
2023/02/26 11:43:42;;;;;;;;;;;4.90;99.90;;;;;;5004636;28;20001;-61
2023/02/26 11:46:08;;;;;;;;;;;4.70;99.90;;;;;;5009668;28;20385;-61
2023/02/26 11:48:39;;;;;;;;;;;4.50;99.90;;;;;;5006322;28;20359;-58
2023/02/26 11:51:06;;;;;;;;;;;4.40;99.90;;;;;;5007046;28;19971;-62
2023/02/26 11:53:36;;;;;;;;;;;4.70;99.90;;;;;;5009404;28;19917;-60
2023/02/26 11:56:11;;;;;;;;;;;4.90;99.90;;;;;;5007233;28;19909;-62
2023/02/26 11:58:38;;;;;;;;;;;5.00;99.90;;;;;;5012778;28;19917;-62
2023/02/26 12:01:05;;;;;;;;;;;5.10;99.90;;;;;;5012273;28;19916;-63
2023/02/26 12:03:32;;;;;;;;;;;5.40;99.90;;;;;;5006779;28;20030;-62
2023/02/26 12:05:58;;;;;;;;;;;6.10;99.90;;;;;;5005808;28;19914;-62
2023/02/26 12:08:25;;;;;;;;;;;6.70;99.90;;;;;;5010365;28;19921;-62
2023/02/26 12:10:50;;;;;;;;;;;6.80;99.90;;;;;;5012573;28;19922;-62
2023/02/26 12:13:26;;;;;;;;;;;6.80;99.90;;;;;;5011488;28;19924;-62
2023/02/26 12:15:55;;;;;;;;;;;6.60;99.90;;;;;;4976455;28;19957;-62
2023/02/26 12:18:21;;;;;;;;;;;6.10;99.90;;;;;;5010583;28;20313;-62
2023/02/26 12:20:54;;;;;;;;;;;5.60;99.90;;;;;;5014367;28;19921;-60
2023/02/26 12:23:26;;;;;;;;;;;5.20;99.90;;;;;;4996525;28;20461;-61
2023/02/26 12:26:11;;;;;;;;;;;5.10;99.90;;;;;;4988285;28;19955;-62
2023/02/26 12:28:42;;;;;;;;;;;5.10;99.90;;;;;;5004126;28;19971;-61
2023/02/26 12:31:08;;;;;;;;;;;5.20;99.90;;;;;;5004848;28;20003;-62
2023/02/26 12:33:52;;;;;;;;;;;5.60;99.90;;;;;;5009244;28;20017;-61
2023/02/26 12:36:23;;;;;;;;;;;6.00;99.90;;;;;;5007332;28;20022;-62
2023/02/26 12:38:55;;;;;;;;;;;6.20;99.90;;;;;;5004510;28;19920;-62
2023/02/26 12:41:52;;;;;;;;;;;6.50;99.90;;;;;;5002986;28;19921;-60
2023/02/26 12:44:25;;;;;;;;;;;6.90;99.90;;;;;;4982436;28;20402;-62
2023/02/26 12:46:58;;;;;;;;;;;7.20;99.90;;;;;;4996849;28;20013;-62
2023/02/26 12:49:23;;;;;;;;;;;7.40;99.90;;;;;;4996948;28;19961;-63
2023/02/26 12:51:53;;;;;;;;;;;7.40;99.90;;;;;;5006110;28;19968;-61
2023/02/26 12:54:31;;;;;;;;;;;7.20;99.90;;;;;;5015109;28;19920;-62
2023/02/26 12:56:59;;;;;;;;;;;7.40;99.90;;;;;;5008032;28;20372;-63
2023/02/26 12:59:35;;;;;;;;;;;7.80;99.90;;;;;;5011169;28;19959;-61
2023/02/26 13:02:12;;;;;;;;;;;7.80;99.90;;;;;;4992289;28;19944;-62
2023/02/26 13:04:38;;;;;;;;;;;8.00;99.90;;;;;;4996614;28;20323;-63
2023/02/26 13:07:16;;;;;;;;;;;8.60;99.90;;;;;;5002321;28;19922;-63
2023/02/26 13:09:50;;;;;;;;;;;8.70;99.90;;;;;;5006065;28;19913;-63
2023/02/26 13:12:19;;;;;;;;;;;8.60;99.90;;;;;;4986687;28;19928;-61
2023/02/26 13:14:48;;;;;;;;;;;8.30;99.90;;;;;;4996756;28;19924;-62
2023/02/26 13:17:32;;;;;;;;;;;7.80;99.90;;;;;;4991081;28;19914;-62
2023/02/26 13:20:10;;;;;;;;;;;7.60;99.90;;;;;;4992860;28;19963;-62
2023/02/26 13:22:41;;;;;;;;;;;7.20;99.90;;;;;;4978948;28;19953;-63
2023/02/26 13:25:16;;;;;;;;;;;7.10;99.90;;;;;;4969437;28;20083;-61
2023/02/26 13:27:42;;;;;;;;;;;6.40;99.90;;;;;;4989224;28;19921;-61
2023/02/26 13:30:16;;;;;;;;;;;6.20;99.90;;;;;;4975658;28;19977;-62
2023/02/26 13:32:42;;;;;;;;;;;6.30;99.90;;;;;;4985964;28;19917;-61
2023/02/26 13:35:17;;;;;;;;;;;6.30;99.90;;;;;;4966627;28;19921;-61
2023/02/26 13:37:48;;;;;;;;;;;6.60;99.90;;;;;;4980909;28;19914;-61
2023/02/26 13:40:22;;;;;;;;;;;6.90;99.90;;;;;;4968928;28;20031;-59
2023/02/26 13:43:03;;;;;;;;;;;6.90;99.90;;;;;;4963946;28;20248;-62
2023/02/26 13:45:29;;;;;;;;;;;7.00;99.90;;;;;;4990345;28;19922;-62
2023/02/26 13:48:17;;;;;;;;;;;7.20;99.90;;;;;;4984060;28;20506;-62
2023/02/26 13:50:42;;;;;;;;;;;7.40;99.90;;;;;;4981226;28;19993;-62
2023/02/26 13:53:23;;;;;;;;;;;7.70;99.90;;;;;;4986070;28;20044;-62
2023/02/26 13:55:50;;;;;;;;;;;7.80;99.90;;;;;;4990183;28;20055;-63
2023/02/26 13:58:22;;;;;;;;;;;7.90;99.90;;;;;;4980230;28;20012;-63
2023/02/26 14:00:57;;;;;;;;;;;8.10;99.90;;;;;;4985852;28;19973;-62
2023/02/26 14:03:25;;;;;;;;;;;8.20;99.90;;;;;;4973340;28;20336;-62
2023/02/26 14:05:52;;;;;;;;;;;8.20;99.90;;;;;;4986273;28;20426;-62
2023/02/26 14:08:26;;;;;;;;;;;7.90;99.90;;;;;;4974015;28;20410;-63
2023/02/26 14:10:56;;;;;;;;;;;7.90;99.90;;;;;;4971268;28;19918;-62
2023/02/26 14:13:29;;;;;;;;;;;7.80;99.90;;;;;;4991131;28;20375;-63
2023/02/26 14:15:59;;;;;;;;;;;8.00;99.90;;;;;;5004955;28;19945;-62
2023/02/26 14:18:34;;;;;;;;;;;8.20;99.90;;;;;;5008951;28;19983;-63
2023/02/26 14:21:18;;;;;;;;;;;7.80;99.90;;;;;;5004667;28;20438;-62
2023/02/26 14:23:47;;;;;;;;;;;7.80;99.90;;;;;;5010229;28;20371;-62
2023/02/26 14:26:15;;;;;;;;;;;8.00;99.90;;;;;;4979465;28;19955;-63
2023/02/26 14:28:57;;;;;;;;;;;7.80;99.90;;;;;;4995857;28;19914;-62
2023/02/26 14:31:25;;;;;;;;;;;7.40;99.90;;;;;;5002690;28;19921;-62
2023/02/26 14:34:00;;;;;;;;;;;7.40;99.90;;;;;;5003294;28;19922;-62
2023/02/26 14:36:41;;;;;;;;;;;7.50;99.90;;;;;;4999570;28;19926;-62
2023/02/26 14:39:10;;;;;;;;;;;7.20;99.90;;;;;;4985659;28;20366;-62
2023/02/26 14:41:40;;;;;;;;;;;7.20;99.90;;;;;;5002658;28;19922;-65